sensor_id;sensor_type;location;lat;lon;timestamp;pressure;altitude;pressure_sealevel;temperature;humidity
25855;BME280;13680;49.936;11.344;2022-12-07T00:01:20;96582.09;;;3.74;84.04
25855;BME280;13680;49.936;11.344;2022-12-07T00:03:47;96582.16;;;3.85;83.78
25855;BME280;13680;49.936;11.344;2022-12-07T00:06:15;96584.34;;;3.98;82.91
25855;BME280;13680;49.936;11.344;2022-12-07T00:08:41;96590.19;;;4.00;82.64
25855;BME280;13680;49.936;11.344;2022-12-07T00:11:09;96593.13;;;4.04;82.46
25855;BME280;13680;49.936;11.344;2022-12-07T00:13:35;96590.75;;;4.13;81.88
25855;BME280;13680;49.936;11.344;2022-12-07T00:16:06;96591.25;;;4.04;82.04
25855;BME280;13680;49.936;11.344;2022-12-07T00:18:33;96583.03;;;4.01;82.27
25855;BME280;13680;49.936;11.344;2022-12-07T00:21:11;96586.22;;;4.08;80.97
25855;BME280;13680;49.936;11.344;2022-12-07T00:23:37;96581.72;;;4.14;81.06
25855;BME280;13680;49.936;11.344;2022-12-07T00:26:26;96583.88;;;4.22;81.00
25855;BME280;13680;49.936;11.344;2022-12-07T00:28:51;96587.56;;;4.16;80.52
25855;BME280;13680;49.936;11.344;2022-12-07T00:31:19;96592.88;;;4.10;80.69
25855;BME280;13680;49.936;11.344;2022-12-07T00:33:45;96586.50;;;4.17;80.81
25855;BME280;13680;49.936;11.344;2022-12-07T00:36:14;96587.59;;;4.21;80.71
25855;BME280;13680;49.936;11.344;2022-12-07T00:38:40;96583.34;;;4.20;80.48
25855;BME280;13680;49.936;11.344;2022-12-07T00:41:11;96575.25;;;3.94;81.10
25855;BME280;13680;49.936;11.344;2022-12-07T00:43:38;96566.50;;;3.99;81.10
25855;BME280;13680;49.936;11.344;2022-12-07T00:46:03;96575.28;;;4.04;80.65
25855;BME280;13680;49.936;11.344;2022-12-07T00:48:29;96566.53;;;4.09;80.64
25855;BME280;13680;49.936;11.344;2022-12-07T00:50:54;96568.94;;;4.10;80.35
25855;BME280;13680;49.936;11.344;2022-12-07T00:53:20;96569.47;;;4.13;80.14
25855;BME280;13680;49.936;11.344;2022-12-07T00:55:45;96568.81;;;3.74;82.35
25855;BME280;13680;49.936;11.344;2022-12-07T00:58:11;96573.66;;;3.88;81.62
25855;BME280;13680;49.936;11.344;2022-12-07T01:00:38;96572.09;;;3.97;81.23
25855;BME280;13680;49.936;11.344;2022-12-07T01:03:06;96573.44;;;4.00;81.07
25855;BME280;13680;49.936;11.344;2022-12-07T01:05:31;96570.78;;;4.05;81.04
25855;BME280;13680;49.936;11.344;2022-12-07T01:07:57;96574.50;;;3.99;81.01
25855;BME280;13680;49.936;11.344;2022-12-07T01:10:23;96570.25;;;4.03;80.95
25855;BME280;13680;49.936;11.344;2022-12-07T01:12:48;96572.91;;;4.08;80.79
25855;BME280;13680;49.936;11.344;2022-12-07T01:15:13;96570.53;;;4.06;81.23
25855;BME280;13680;49.936;11.344;2022-12-07T01:17:39;96572.13;;;4.07;81.24
25855;BME280;13680;49.936;11.344;2022-12-07T01:20:05;96575.59;;;4.13;81.20
25855;BME280;13680;49.936;11.344;2022-12-07T01:22:36;96570.53;;;4.17;81.21
25855;BME280;13680;49.936;11.344;2022-12-07T01:25:02;96562.28;;;4.08;80.90
25855;BME280;13680;49.936;11.344;2022-12-07T01:27:28;96567.84;;;4.06;81.13
25855;BME280;13680;49.936;11.344;2022-12-07T01:29:53;96571.56;;;4.05;81.30
25855;BME280;13680;49.936;11.344;2022-12-07T01:32:18;96565.75;;;4.08;80.82
25855;BME280;13680;49.936;11.344;2022-12-07T01:34:44;96570.25;;;4.13;80.82
25855;BME280;13680;49.936;11.344;2022-12-07T01:37:09;96568.44;;;4.19;80.76
25855;BME280;13680;49.936;11.344;2022-12-07T01:39:34;96567.88;;;4.12;80.98
25855;BME280;13680;49.936;11.344;2022-12-07T01:42:00;96562.84;;;4.15;80.74
25855;BME280;13680;49.936;11.344;2022-12-07T01:44:27;96560.91;;;3.95;81.33
25855;BME280;13680;49.936;11.344;2022-12-07T01:46:54;96557.19;;;3.96;81.12
25855;BME280;13680;49.936;11.344;2022-12-07T01:49:40;96565.97;;;3.97;81.18
25855;BME280;13680;49.936;11.344;2022-12-07T01:52:37;96559.59;;;4.03;80.60
25855;BME280;13680;49.936;11.344;2022-12-07T01:55:07;96561.97;;;3.99;80.79
25855;BME280;13680;49.936;11.344;2022-12-07T01:57:34;96556.66;;;4.04;81.10
25855;BME280;13680;49.936;11.344;2022-12-07T02:00:03;96558.00;;;4.02;80.93
25855;BME280;13680;49.936;11.344;2022-12-07T02:02:32;96558.78;;;3.92;81.29
25855;BME280;13680;49.936;11.344;2022-12-07T02:05:00;96561.47;;;3.97;80.93
25855;BME280;13680;49.936;11.344;2022-12-07T02:07:26;96549.50;;;4.00;81.09
25855;BME280;13680;49.936;11.344;2022-12-07T02:09:53;96544.44;;;4.03;81.08
25855;BME280;13680;49.936;11.344;2022-12-07T02:12:19;96538.03;;;4.04;81.29
25855;BME280;13680;49.936;11.344;2022-12-07T02:14:45;96540.19;;;4.07;80.75
25855;BME280;13680;49.936;11.344;2022-12-07T02:17:40;96537.53;;;4.02;80.62
25855;BME280;13680;49.936;11.344;2022-12-07T02:28:31;96519.69;;;3.98;80.34
25855;BME280;13680;49.936;11.344;2022-12-07T02:31:05;96512.50;;;3.93;80.51
25855;BME280;13680;49.936;11.344;2022-12-07T02:33:36;96512.25;;;4.00;80.50
25855;BME280;13680;49.936;11.344;2022-12-07T02:36:07;96506.66;;;3.96;80.71
25855;BME280;13680;49.936;11.344;2022-12-07T02:38:43;96509.03;;;3.92;80.25
25855;BME280;13680;49.936;11.344;2022-12-07T02:41:20;96515.38;;;3.86;80.37
25855;BME280;13680;49.936;11.344;2022-12-07T02:43:56;96514.06;;;3.84;80.05
25855;BME280;13680;49.936;11.344;2022-12-07T02:46:29;96511.94;;;3.86;80.31
25855;BME280;13680;49.936;11.344;2022-12-07T02:48:56;96509.56;;;3.95;80.27
25855;BME280;13680;49.936;11.344;2022-12-07T02:51:25;96513.00;;;3.90;80.09
25855;BME280;13680;49.936;11.344;2022-12-07T02:53:50;96512.50;;;3.88;79.96
25855;BME280;13680;49.936;11.344;2022-12-07T03:07:30;96512.22;;;3.84;79.61
25855;BME280;13680;49.936;11.344;2022-12-07T03:12:37;96509.78;;;3.83;80.02
25855;BME280;13680;49.936;11.344;2022-12-07T03:15:20;96504.72;;;3.76;80.44
25855;BME280;13680;49.936;11.344;2022-12-07T03:17:48;96509.78;;;3.77;80.42
25855;BME280;13680;49.936;11.344;2022-12-07T03:20:18;96515.34;;;3.76;80.40
25855;BME280;13680;49.936;11.344;2022-12-07T03:22:46;96517.19;;;3.65;80.53
25855;BME280;13680;49.936;11.344;2022-12-07T03:25:15;96522.56;;;3.75;80.64
25855;BME280;13680;49.936;11.344;2022-12-07T03:27:54;96518.81;;;3.71;80.61
25855;BME280;13680;49.936;11.344;2022-12-07T03:30:41;96522.47;;;3.50;81.34
25855;BME280;13680;49.936;11.344;2022-12-07T03:33:13;96532.50;;;3.42;82.00
25855;BME280;13680;49.936;11.344;2022-12-07T03:35:48;96525.00;;;3.29;81.92
25855;BME280;13680;49.936;11.344;2022-12-07T03:38:23;96521.34;;;3.40;81.66
25855;BME280;13680;49.936;11.344;2022-12-07T03:40:57;96515.41;;;3.18;81.89
25855;BME280;13680;49.936;11.344;2022-12-07T03:43:25;96519.28;;;3.53;81.27
25855;BME280;13680;49.936;11.344;2022-12-07T03:51:17;96505.13;;;3.37;81.42
25855;BME280;13680;49.936;11.344;2022-12-07T03:54:07;96498.84;;;3.05;82.34
25855;BME280;13680;49.936;11.344;2022-12-07T03:56:36;96496.13;;;2.95;82.65
25855;BME280;13680;49.936;11.344;2022-12-07T03:59:02;96489.66;;;3.28;81.03
25855;BME280;13680;49.936;11.344;2022-12-07T04:01:27;96506.91;;;3.21;81.23
25855;BME280;13680;49.936;11.344;2022-12-07T04:03:53;96495.19;;;3.17;80.67
25855;BME280;13680;49.936;11.344;2022-12-07T04:06:18;96504.81;;;3.28;80.66
25855;BME280;13680;49.936;11.344;2022-12-07T04:08:43;96506.38;;;3.24;80.49
25855;BME280;13680;49.936;11.344;2022-12-07T04:11:09;96495.00;;;3.34;80.56
25855;BME280;13680;49.936;11.344;2022-12-07T04:13:34;96504.28;;;3.31;80.58
25855;BME280;13680;49.936;11.344;2022-12-07T04:16:19;96505.66;;;3.39;80.12
25855;BME280;13680;49.936;11.344;2022-12-07T04:18:46;96500.88;;;3.41;79.67
25855;BME280;13680;49.936;11.344;2022-12-07T04:21:11;96496.38;;;3.47;80.14
25855;BME280;13680;49.936;11.344;2022-12-07T04:23:36;96495.91;;;3.55;79.44
25855;BME280;13680;49.936;11.344;2022-12-07T04:26:02;96497.94;;;3.37;79.69
25855;BME280;13680;49.936;11.344;2022-12-07T04:28:27;96498.41;;;3.29;80.04
25855;BME280;13680;49.936;11.344;2022-12-07T04:30:52;96495.84;;;3.39;80.29
25855;BME280;13680;49.936;11.344;2022-12-07T04:33:17;96497.69;;;3.39;80.42
25855;BME280;13680;49.936;11.344;2022-12-07T04:35:43;96501.06;;;3.24;81.05
25855;BME280;13680;49.936;11.344;2022-12-07T04:38:08;96495.78;;;3.34;80.81
25855;BME280;13680;49.936;11.344;2022-12-07T04:40:34;96496.38;;;3.47;79.96
25855;BME280;13680;49.936;11.344;2022-12-07T04:42:59;96503.25;;;3.37;80.27
25855;BME280;13680;49.936;11.344;2022-12-07T04:45:24;96501.91;;;3.35;80.67
25855;BME280;13680;49.936;11.344;2022-12-07T04:47:50;96508.34;;;3.49;80.34
25855;BME280;13680;49.936;11.344;2022-12-07T04:50:15;96511.28;;;3.53;80.11
25855;BME280;13680;49.936;11.344;2022-12-07T04:52:40;96506.25;;;3.56;79.83
25855;BME280;13680;49.936;11.344;2022-12-07T04:55:06;96508.09;;;3.56;79.95
25855;BME280;13680;49.936;11.344;2022-12-07T04:57:31;96511.03;;;3.59;79.79
25855;BME280;13680;49.936;11.344;2022-12-07T04:59:56;96497.47;;;3.56;79.94
25855;BME280;13680;49.936;11.344;2022-12-07T05:02:22;96505.50;;;3.66;79.93
25855;BME280;13680;49.936;11.344;2022-12-07T05:04:47;96508.09;;;3.56;80.07
25855;BME280;13680;49.936;11.344;2022-12-07T05:07:12;96513.47;;;3.61;79.77
25855;BME280;13680;49.936;11.344;2022-12-07T05:09:38;96511.84;;;3.55;80.11
25855;BME280;13680;49.936;11.344;2022-12-07T05:12:03;96508.09;;;3.51;80.48
25855;BME280;13680;49.936;11.344;2022-12-07T05:14:28;96502.78;;;3.56;80.20
25855;BME280;13680;49.936;11.344;2022-12-07T05:16:54;96500.94;;;3.56;80.01
25855;BME280;13680;49.936;11.344;2022-12-07T05:19:19;96507.03;;;3.52;80.17
25855;BME280;13680;49.936;11.344;2022-12-07T05:21:45;96506.50;;;3.44;80.42
25855;BME280;13680;49.936;11.344;2022-12-07T05:24:12;96498.16;;;3.25;81.68
25855;BME280;13680;49.936;11.344;2022-12-07T05:26:38;96500.09;;;3.51;80.71
25855;BME280;13680;49.936;11.344;2022-12-07T05:29:04;96500.09;;;3.51;80.37
25855;BME280;13680;49.936;11.344;2022-12-07T05:31:30;96502.53;;;3.52;80.39
25855;BME280;13680;49.936;11.344;2022-12-07T05:33:55;96495.19;;;3.17;81.53
25855;BME280;13680;49.936;11.344;2022-12-07T05:36:21;96491.56;;;3.33;81.04
25855;BME280;13680;49.936;11.344;2022-12-07T05:38:46;96496.25;;;3.16;81.63
25855;BME280;13680;49.936;11.344;2022-12-07T05:41:14;96495.53;;;3.31;81.52
25855;BME280;13680;49.936;11.344;2022-12-07T05:43:59;96486.22;;;3.28;81.47
25855;BME280;13680;49.936;11.344;2022-12-07T05:46:24;96488.50;;;3.09;82.72
25855;BME280;13680;49.936;11.344;2022-12-07T05:48:50;96491.75;;;3.21;82.28
25855;BME280;13680;49.936;11.344;2022-12-07T05:51:15;96488.59;;;3.30;81.79
25855;BME280;13680;49.936;11.344;2022-12-07T05:53:41;96487.78;;;3.29;81.96
25855;BME280;13680;49.936;11.344;2022-12-07T05:56:06;96483.31;;;3.35;81.96
25855;BME280;13680;49.936;11.344;2022-12-07T05:58:31;96475.06;;;3.36;81.62
25855;BME280;13680;49.936;11.344;2022-12-07T06:01:15;96476.69;;;3.42;81.67
25855;BME280;13680;49.936;11.344;2022-12-07T06:03:41;96485.22;;;3.44;81.40
25855;BME280;13680;49.936;11.344;2022-12-07T06:06:06;96483.88;;;3.37;81.85
25855;BME280;13680;49.936;11.344;2022-12-07T06:08:31;96482.25;;;3.36;81.72
25855;BME280;13680;49.936;11.344;2022-12-07T06:10:57;96479.28;;;3.27;82.14
25855;BME280;13680;49.936;11.344;2022-12-07T06:13:40;96470.03;;;3.40;81.81
25855;BME280;13680;49.936;11.344;2022-12-07T06:16:06;96471.84;;;3.29;81.77
25855;BME280;13680;49.936;11.344;2022-12-07T06:18:31;96471.91;;;3.39;81.53
25855;BME280;13680;49.936;11.344;2022-12-07T06:20:57;96472.69;;;3.35;81.54
25855;BME280;13680;49.936;11.344;2022-12-07T06:23:22;96478.25;;;3.33;81.62
25855;BME280;13680;49.936;11.344;2022-12-07T06:25:47;96477.72;;;3.36;81.63
25855;BME280;13680;49.936;11.344;2022-12-07T06:28:12;96475.31;;;3.30;81.97
25855;BME280;13680;49.936;11.344;2022-12-07T06:30:38;96465.00;;;3.38;81.60
25855;BME280;13680;49.936;11.344;2022-12-07T06:33:03;96468.94;;;3.31;81.82
25855;BME280;13680;49.936;11.344;2022-12-07T06:35:28;96471.84;;;3.29;81.90
25855;BME280;13680;49.936;11.344;2022-12-07T06:37:54;96481.94;;;3.27;82.13
25855;BME280;13680;49.936;11.344;2022-12-07T06:40:19;96484.03;;;3.20;81.95
25855;BME280;13680;49.936;11.344;2022-12-07T06:42:45;96486.22;;;3.33;81.72
25855;BME280;13680;49.936;11.344;2022-12-07T06:45:10;96480.66;;;3.35;81.58
25855;BME280;13680;49.936;11.344;2022-12-07T06:47:35;96477.16;;;3.29;81.53
25855;BME280;13680;49.936;11.344;2022-12-07T06:50:00;96478.47;;;3.26;81.93
25855;BME280;13680;49.936;11.344;2022-12-07T06:52:26;96481.38;;;3.20;82.14
25855;BME280;13680;49.936;11.344;2022-12-07T06:54:51;96469.75;;;3.36;81.85
25855;BME280;13680;49.936;11.344;2022-12-07T06:57:16;96482.50;;;3.34;81.62
25855;BME280;13680;49.936;11.344;2022-12-07T06:59:42;96476.13;;;3.35;81.64
25855;BME280;13680;49.936;11.344;2022-12-07T07:02:08;96478.88;;;2.98;82.80
25855;BME280;13680;49.936;11.344;2022-12-07T07:04:33;96477.59;;;3.05;83.06
25855;BME280;13680;49.936;11.344;2022-12-07T07:06:59;96491.50;;;3.23;82.36
25855;BME280;13680;49.936;11.344;2022-12-07T07:09:24;96489.25;;;2.99;82.81
25855;BME280;13680;49.936;11.344;2022-12-07T07:11:49;96490.63;;;3.07;82.93
25855;BME280;13680;49.936;11.344;2022-12-07T07:14:15;96491.75;;;3.21;82.46
25855;BME280;13680;49.936;11.344;2022-12-07T07:16:44;96492.56;;;3.22;82.41
25855;BME280;13680;49.936;11.344;2022-12-07T07:19:09;96490.97;;;3.26;82.32
25855;BME280;13680;49.936;11.344;2022-12-07T07:21:36;96487.25;;;3.22;82.22
25855;BME280;13680;49.936;11.344;2022-12-07T07:24:01;96496.19;;;3.05;83.47
25855;BME280;13680;49.936;11.344;2022-12-07T07:26:27;96500.53;;;3.22;82.96
25855;BME280;13680;49.936;11.344;2022-12-07T07:28:52;96491.47;;;3.13;83.15
25855;BME280;13680;49.936;11.344;2022-12-07T07:31:17;96503.72;;;3.24;82.76
25855;BME280;13680;49.936;11.344;2022-12-07T07:33:43;96499.44;;;2.75;84.10
25855;BME280;13680;49.936;11.344;2022-12-07T07:36:08;96499.91;;;3.09;83.96
25855;BME280;13680;49.936;11.344;2022-12-07T07:38:34;96510.16;;;3.33;82.67
25855;BME280;13680;49.936;11.344;2022-12-07T07:40:59;96498.06;;;3.10;83.60
25855;BME280;13680;49.936;11.344;2022-12-07T07:43:24;96507.47;;;2.85;83.91
25855;BME280;13680;49.936;11.344;2022-12-07T07:45:50;96502.09;;;3.18;83.34
25855;BME280;13680;49.936;11.344;2022-12-07T07:48:15;96499.91;;;3.09;83.39
25855;BME280;13680;49.936;11.344;2022-12-07T07:50:41;96499.94;;;3.15;83.44
25855;BME280;13680;49.936;11.344;2022-12-07T07:53:06;96499.38;;;3.07;83.64
25855;BME280;13680;49.936;11.344;2022-12-07T07:55:31;96499.13;;;3.09;83.30
25855;BME280;13680;49.936;11.344;2022-12-07T07:57:56;96509.53;;;2.78;84.93
25855;BME280;13680;49.936;11.344;2022-12-07T08:00:22;96500.47;;;3.11;84.09
25855;BME280;13680;49.936;11.344;2022-12-07T08:02:48;96500.56;;;3.27;83.13
25855;BME280;13680;49.936;11.344;2022-12-07T08:05:13;96511.03;;;2.96;84.54
25855;BME280;13680;49.936;11.344;2022-12-07T08:07:39;96512.75;;;3.23;83.33
25855;BME280;13680;49.936;11.344;2022-12-07T08:10:05;96508.41;;;3.01;84.50
25855;BME280;13680;49.936;11.344;2022-12-07T08:12:31;96515.91;;;3.20;83.41
25855;BME280;13680;49.936;11.344;2022-12-07T08:14:56;96507.59;;;3.06;84.54
25855;BME280;13680;49.936;11.344;2022-12-07T08:17:21;96519.13;;;3.22;84.20
25855;BME280;13680;49.936;11.344;2022-12-07T08:19:47;96508.47;;;3.17;83.92
25855;BME280;13680;49.936;11.344;2022-12-07T08:22:12;96510.16;;;3.33;83.29
25855;BME280;13680;49.936;11.344;2022-12-07T08:24:37;96511.28;;;3.48;83.01
25855;BME280;13680;49.936;11.344;2022-12-07T08:27:03;96511.41;;;3.15;83.86
25855;BME280;13680;49.936;11.344;2022-12-07T08:29:28;96512.56;;;2.92;84.92
25855;BME280;13680;49.936;11.344;2022-12-07T08:31:54;96510.56;;;3.15;83.93
25855;BME280;13680;49.936;11.344;2022-12-07T08:34:19;96510.69;;;3.40;83.20
25855;BME280;13680;49.936;11.344;2022-12-07T08:36:44;96512.03;;;3.38;83.09
25855;BME280;13680;49.936;11.344;2022-12-07T08:39:10;96509.00;;;3.19;83.24
25855;BME280;13680;49.936;11.344;2022-12-07T08:41:36;96515.50;;;3.43;82.97
25855;BME280;13680;49.936;11.344;2022-12-07T08:44:01;96513.88;;;3.32;83.32
25855;BME280;13680;49.936;11.344;2022-12-07T08:46:34;96516.06;;;3.56;82.81
25855;BME280;13680;49.936;11.344;2022-12-07T08:49:12;96518.97;;;3.49;82.75
25855;BME280;13680;49.936;11.344;2022-12-07T08:51:39;96516.66;;;3.68;82.08
25855;BME280;13680;49.936;11.344;2022-12-07T08:54:09;96520.50;;;3.30;83.31
25855;BME280;13680;49.936;11.344;2022-12-07T08:56:35;96521.63;;;3.49;82.81
25855;BME280;13680;49.936;11.344;2022-12-07T08:59:01;96524.59;;;3.53;82.95
25855;BME280;13680;49.936;11.344;2022-12-07T09:01:28;96527.28;;;3.63;82.64
25855;BME280;13680;49.936;11.344;2022-12-07T09:03:53;96525.84;;;2.92;86.31
25855;BME280;13680;49.936;11.344;2022-12-07T09:06:18;96531.84;;;3.20;85.12
25855;BME280;13680;49.936;11.344;2022-12-07T09:08:47;96542.78;;;3.23;85.35
25855;BME280;13680;49.936;11.344;2022-12-07T09:11:13;96540.34;;;3.17;85.46
25855;BME280;13680;49.936;11.344;2022-12-07T09:13:38;96536.09;;;3.16;85.51
25855;BME280;13680;49.936;11.344;2022-12-07T09:16:04;96536.19;;;3.36;85.05
25855;BME280;13680;49.936;11.344;2022-12-07T09:18:30;96537.81;;;3.37;84.69
25855;BME280;13680;49.936;11.344;2022-12-07T09:20:55;96538.34;;;3.39;84.66
25855;BME280;13680;49.936;11.344;2022-12-07T09:23:21;96541.81;;;3.40;84.65
25855;BME280;13680;49.936;11.344;2022-12-07T09:25:46;96542.03;;;3.28;84.92
25855;BME280;13680;49.936;11.344;2022-12-07T09:28:11;96547.47;;;3.54;84.19
25855;BME280;13680;49.936;11.344;2022-12-07T09:30:37;96542.59;;;3.40;84.72
25855;BME280;13680;49.936;11.344;2022-12-07T09:33:02;96542.84;;;3.39;85.04
25855;BME280;13680;49.936;11.344;2022-12-07T09:35:27;96539.75;;;3.52;84.36
25855;BME280;13680;49.936;11.344;2022-12-07T09:37:53;96538.13;;;3.51;84.21
25855;BME280;13680;49.936;11.344;2022-12-07T09:40:20;96540.22;;;3.44;84.18
25855;BME280;13680;49.936;11.344;2022-12-07T09:42:53;96533.91;;;3.55;84.62
25855;BME280;13680;49.936;11.344;2022-12-07T09:45:24;96528.88;;;3.59;84.29
25855;BME280;13680;49.936;11.344;2022-12-07T09:47:51;96529.16;;;3.63;83.79
25855;BME280;13680;49.936;11.344;2022-12-07T09:50:21;96525.00;;;3.29;85.54
25855;BME280;13680;49.936;11.344;2022-12-07T09:52:48;96515.06;;;3.67;84.46
25855;BME280;13680;49.936;11.344;2022-12-07T09:55:16;96523.06;;;3.72;84.47
25855;BME280;13680;49.936;11.344;2022-12-07T09:57:44;96512.25;;;3.31;85.35
25855;BME280;13680;49.936;11.344;2022-12-07T10:00:16;96516.66;;;3.68;84.79
25855;BME280;13680;49.936;11.344;2022-12-07T10:02:46;96514.53;;;3.65;83.92
25855;BME280;13680;49.936;11.344;2022-12-07T10:05:15;96511.28;;;3.48;84.89
25855;BME280;13680;49.936;11.344;2022-12-07T10:07:43;96511.34;;;3.10;87.19
25855;BME280;13680;49.936;11.344;2022-12-07T10:10:24;96516.63;;;3.58;85.79
25855;BME280;13680;49.936;11.344;2022-12-07T10:12:58;96513.47;;;3.66;85.36
25855;BME280;13680;49.936;11.344;2022-12-07T10:18:32;96500.69;;;3.58;85.80
25855;BME280;13680;49.936;11.344;2022-12-07T10:21:16;96502.91;;;3.87;84.80
25855;BME280;13680;49.936;11.344;2022-12-07T10:29:17;96502.28;;;3.64;84.88
25855;BME280;13680;49.936;11.344;2022-12-07T10:31:45;96511.91;;;3.70;85.19
25855;BME280;13680;49.936;11.344;2022-12-07T10:34:30;96509.28;;;3.91;84.62
25855;BME280;13680;49.936;11.344;2022-12-07T10:39:54;96510.34;;;3.85;84.87
25855;BME280;13680;49.936;11.344;2022-12-07T10:42:24;96504.44;;;3.77;85.20
25855;BME280;13680;49.936;11.344;2022-12-07T10:45:08;96508.53;;;4.01;84.56
25855;BME280;13680;49.936;11.344;2022-12-07T10:47:48;96506.94;;;4.05;84.42
25855;BME280;13680;49.936;11.344;2022-12-07T10:50:37;96503.41;;;3.89;84.95
25855;BME280;13680;49.936;11.344;2022-12-07T10:53:10;96502.63;;;3.83;85.38
25855;BME280;13680;49.936;11.344;2022-12-07T11:06:36;96487.00;;;4.28;83.30
25855;BME280;13680;49.936;11.344;2022-12-07T11:14:28;96490.19;;;4.25;83.45
25855;BME280;13680;49.936;11.344;2022-12-07T11:17:34;96483.81;;;4.41;82.90
25855;BME280;13680;49.936;11.344;2022-12-07T11:22:53;96470.75;;;4.50;82.26
25855;BME280;13680;49.936;11.344;2022-12-07T11:25:47;96461.19;;;4.54;82.08
25855;BME280;13680;49.936;11.344;2022-12-07T11:33:54;96471.78;;;4.03;84.31
25855;BME280;13680;49.936;11.344;2022-12-07T11:36:31;96458.25;;;4.30;83.53
25855;BME280;13680;49.936;11.344;2022-12-07T11:39:02;96448.66;;;4.55;82.85
25855;BME280;13680;49.936;11.344;2022-12-07T11:41:34;96457.72;;;4.43;82.93
25855;BME280;13680;49.936;11.344;2022-12-07T11:46:47;96449.75;;;4.28;83.13
25855;BME280;13680;49.936;11.344;2022-12-07T11:49:37;96453.47;;;4.58;82.56
25855;BME280;13680;49.936;11.344;2022-12-07T11:52:13;96451.31;;;4.55;82.59
25855;BME280;13680;49.936;11.344;2022-12-07T11:54:43;96441.19;;;4.72;81.76
25855;BME280;13680;49.936;11.344;2022-12-07T11:57:22;96444.16;;;4.61;81.64
25855;BME280;13680;49.936;11.344;2022-12-07T11:59:52;96430.53;;;4.78;81.50
25855;BME280;13680;49.936;11.344;2022-12-07T12:02:27;96432.38;;;4.87;81.35
25855;BME280;13680;49.936;11.344;2022-12-07T12:05:13;96423.84;;;4.80;81.67
25855;BME280;13680;49.936;11.344;2022-12-07T12:07:42;96422.03;;;4.55;81.51
25855;BME280;13680;49.936;11.344;2022-12-07T12:10:23;96426.81;;;4.53;82.28
25855;BME280;13680;49.936;11.344;2022-12-07T12:13:03;96422.78;;;4.86;81.13
25855;BME280;13680;49.936;11.344;2022-12-07T12:15:51;96423.56;;;4.87;80.76
25855;BME280;13680;49.936;11.344;2022-12-07T12:19:06;96419.88;;;4.78;80.77
25855;BME280;13680;49.936;11.344;2022-12-07T12:21:12;96416.38;;;4.87;80.30
25855;BME280;13680;49.936;11.344;2022-12-07T12:23:44;96412.69;;;4.73;80.33
25855;BME280;13680;49.936;11.344;2022-12-07T12:26:21;96412.16;;;4.76;79.90
25855;BME280;13680;49.936;11.344;2022-12-07T12:28:58;96418.84;;;4.32;80.67
25855;BME280;13680;49.936;11.344;2022-12-07T12:31:33;96407.88;;;4.80;79.74
25855;BME280;13680;49.936;11.344;2022-12-07T12:34:02;96415.59;;;4.82;79.51
25855;BME280;13680;49.936;11.344;2022-12-07T12:44:02;96409.97;;;4.88;80.14
25855;BME280;13680;49.936;11.344;2022-12-07T12:49:32;96405.75;;;4.72;80.25
25855;BME280;13680;49.936;11.344;2022-12-07T12:54:35;96413.28;;;4.39;81.12
25855;BME280;13680;49.936;11.344;2022-12-07T12:57:11;96408.19;;;4.63;79.98
25855;BME280;13680;49.936;11.344;2022-12-07T12:59:59;96406.84;;;4.50;79.84
25855;BME280;13680;49.936;11.344;2022-12-07T13:02:26;96403.34;;;4.75;80.07
25855;BME280;13680;49.936;11.344;2022-12-07T13:04:59;96407.03;;;5.00;79.07
25855;BME280;13680;49.936;11.344;2022-12-07T13:15:48;96398.84;;;4.76;79.18
25855;BME280;13680;49.936;11.344;2022-12-07T13:28:50;96384.69;;;4.75;78.41
25855;BME280;13680;49.936;11.344;2022-12-07T13:33:48;96384.94;;;4.89;77.63
25855;BME280;13680;49.936;11.344;2022-12-07T13:36:21;96378.88;;;4.68;78.24
25855;BME280;13680;49.936;11.344;2022-12-07T13:38:56;96380.41;;;4.80;77.46
25855;BME280;13680;49.936;11.344;2022-12-07T13:41:26;96381.25;;;4.75;77.69
25855;BME280;13680;49.936;11.344;2022-12-07T13:44:02;96373.47;;;4.89;77.16
25855;BME280;13680;49.936;11.344;2022-12-07T13:49:25;96375.47;;;5.18;76.59
25855;BME280;13680;49.936;11.344;2022-12-07T13:51:52;96380.06;;;5.07;76.30
25855;BME280;13680;49.936;11.344;2022-12-07T13:54:19;96382.41;;;5.19;76.38
25855;BME280;13680;49.936;11.344;2022-12-07T13:56:49;96391.72;;;5.21;76.12
25855;BME280;13680;49.936;11.344;2022-12-07T13:59:18;96384.28;;;5.18;75.87
25855;BME280;13680;49.936;11.344;2022-12-07T14:01:46;96384.81;;;5.20;75.99
25855;BME280;13680;49.936;11.344;2022-12-07T14:04:31;96377.34;;;5.22;76.00
25855;BME280;13680;49.936;11.344;2022-12-07T14:06:56;96384.00;;;5.20;76.49
25855;BME280;13680;49.936;11.344;2022-12-07T14:09:26;96379.50;;;5.10;76.77
25855;BME280;13680;49.936;11.344;2022-12-07T14:11:53;96384.00;;;5.20;76.90
25855;BME280;13680;49.936;11.344;2022-12-07T14:14:30;96380.75;;;5.33;76.62
25855;BME280;13680;49.936;11.344;2022-12-07T14:17:18;96385.09;;;5.14;76.64
25855;BME280;13680;49.936;11.344;2022-12-07T14:19:49;96381.00;;;4.71;78.26
25855;BME280;13680;49.936;11.344;2022-12-07T14:22:27;96379.38;;;4.70;78.35
25855;BME280;13680;49.936;11.344;2022-12-07T14:30:17;96377.00;;;4.74;78.20
25855;BME280;13680;49.936;11.344;2022-12-07T14:32:43;96378.59;;;4.75;78.36
25855;BME280;13680;49.936;11.344;2022-12-07T14:35:15;96379.34;;;4.86;78.22
25855;BME280;13680;49.936;11.344;2022-12-07T14:37:42;96379.34;;;4.86;77.48
25855;BME280;13680;49.936;11.344;2022-12-07T14:40:13;96370.25;;;4.92;77.50
25855;BME280;13680;49.936;11.344;2022-12-07T14:42:39;96371.31;;;4.91;77.69
25855;BME280;13680;49.936;11.344;2022-12-07T14:45:05;96368.66;;;4.91;77.46
25855;BME280;13680;49.936;11.344;2022-12-07T14:47:31;96375.09;;;4.80;78.36
25855;BME280;13680;49.936;11.344;2022-12-07T14:49:57;96371.59;;;4.89;78.17
25855;BME280;13680;49.936;11.344;2022-12-07T14:52:28;96365.78;;;4.72;79.04
25855;BME280;13680;49.936;11.344;2022-12-07T14:54:53;96369.78;;;4.85;78.13
25855;BME280;13680;49.936;11.344;2022-12-07T14:57:19;96369.19;;;4.93;78.31
25855;BME280;13680;49.936;11.344;2022-12-07T14:59:44;96368.13;;;4.94;78.33